TENO2: Tenkiller Lake

Data processed at Sat Jun 16 2018 16:27


All information presented herein is the property of the government of the United States of America and may be revised or deleted at any time without prior notice.
Dissemination of this information without the expressed written consent of the Public Affairs Office, Tulsa District U.S. Army Corps of Engineers is strictly prohibited.
These data are gathered electronically and, as presented, have not undergone any form of quality control. These data are not guaranteed to be valid or correct.
Go to home page.
Go to station list.

Upstream stations:

Downstream station:
Previous Day
Next Day
Current Day
    
SHEF ID:       TENO2     Tenkiller Lake
STATION TYPE:  Reservoir
Normal Pool:  Bottom =   594.50, Top =   632.00

               PRECIP PRECIP(A) ELEVATION   STORAGE   TW-ELEV    INFLOW   RELEASE  AIR-TEMP  WIND-DIRWIND-SPEED REL-HUMID SOLAR-RAD   VOLTAGE  BAT-LOAD
                   in        in        ft     ac-ft        ft       cfs       cfs         F       deg       mph         %      W/m2      volt      volt
              Ccp-Rev   Ccp-Rev   Ccp-Rev   Ccp-Rev   Ccp-Rev  Regi-Rev  Regi-Rev   Ccp-Rev   Ccp-Rev   Ccp-Rev   Ccp-Rev   Ccp-Rev   Ccp-Rev   Ccp-Rev
(US/Central)
06/14 00:00      0.00      0.00    632.56    675878    482.04        15        15     74.82    179.50      0.40    100.23      0.00     13.78     13.24
06/14 01:00      0.00      0.00    632.56    675878    482.04        15        15     73.40    179.50      0.40    100.29      0.00     13.79     13.24
06/14 02:00      0.00      0.00    632.58    676153    482.04       347        15     72.63    179.50      0.40    100.42      0.00     13.78     13.24
06/14 03:00      0.00      0.00    632.56    675878    482.04       679        15     71.53    179.50      0.40    100.42      0.00     13.78     13.24
06/14 04:00      0.00      0.00    632.57    676015    482.04       679        15     70.75    176.00      0.40    100.42      0.00     13.78     13.24
06/14 05:00      0.00      0.00    632.58    676153    482.04       679        15     70.43    146.40      0.37    100.48      0.00     13.78     13.24
06/14 06:00      0.00      0.00    632.58    676153    482.04       679        15     69.87    160.70      0.40    100.42      0.00     13.78     13.30
06/14 07:00      0.00      0.00    632.59    676290    482.04       347        15     70.43    114.90      0.40    100.42     14.00     13.78     13.24
06/14 08:00      0.00      0.00    632.58    676153    482.04        15        15     72.30    121.60      0.37    100.48     84.00     13.78     13.24
06/14 09:00      0.00      0.00    632.58    676153    482.03        15        15     80.53    144.10      0.12     79.36    192.00     13.78     13.18
06/14 10:00      0.00      0.00    632.59    676290    482.03        15        15     83.95    187.20      0.67     71.24    517.00     13.78     13.18
06/14 11:00      0.00      0.00    632.57    676015    482.18        36        15     86.25    178.80      0.58     68.06    690.00     13.78     13.18
06/14 12:00      0.00      0.00    632.58    676153    484.11        57        15     88.56    212.50      2.24     52.31    813.00     13.78     13.18
06/14 13:00      0.00      0.00    632.59    676290    484.09       242       950     89.98    213.70      2.43     49.69    878.00     13.78     13.18
06/14 14:00      0.00      0.00    632.57    676015    484.72       266       950     91.63    197.00      0.49     47.25    860.00     13.79     13.18
06/14 15:00      0.00      0.00    632.56    675878    486.93       290      3500     93.16    231.40      0.99     42.06    874.00     13.78     13.12
06/14 16:00      0.00      0.00    632.54    675604    487.01       341      3589     93.72    101.20      0.65     40.23    741.00     13.78     13.12
06/14 17:00      0.00      0.00    632.52    675329    486.39       329      3589     94.26     98.80      0.74     39.74    633.00     13.78     13.12
06/14 18:00      0.00      0.00    632.52    675329    484.17       153      3589     94.50    120.80      0.18     42.67    466.00     13.78     13.18
06/14 19:00      0.00      0.00    632.51    675192    482.20       139       250     90.21    197.80      0.21     52.68    256.00     13.78     13.18
06/14 20:00      0.00      0.00    632.51    675192    482.07       112        15     87.13     76.70      0.33     55.30     57.00     13.78     13.18
06/14 21:00      0.00      0.00    632.52    675329    482.05        39        15     80.98    193.10      0.20     81.55     11.00     13.78     13.18
06/14 22:00      0.00      0.00    632.52    675329    482.04        28        15     80.31    194.20      0.34     73.80      0.00     13.78     13.24
06/14 23:00      0.00      0.00    632.53    675466    482.04        16        15     77.13    208.70      0.18     84.54      0.00     13.79     13.24